createdAt,value
2018-11-04T00:00:04.343Z,101919.88
2018-11-04T00:02:33.022Z,101923.38
2018-11-04T00:05:01.641Z,101918.74
2018-11-04T00:07:30.387Z,101918.30
2018-11-04T00:09:59.035Z,101912.39
2018-11-04T00:12:27.632Z,101912.77
2018-11-04T00:14:56.303Z,101914.48
2018-11-04T00:17:25.098Z,101905.52
2018-11-04T00:19:53.947Z,101902.02
2018-11-04T00:22:22.863Z,101892.66
2018-11-04T00:24:51.509Z,101882.75
2018-11-04T00:27:20.337Z,101884.46
2018-11-04T00:29:49.122Z,101876.88
2018-11-04T00:32:17.883Z,101876.00
2018-11-04T00:34:46.565Z,101868.31
2018-11-04T00:37:15.264Z,101868.72
2018-11-04T00:39:43.890Z,101875.80
2018-11-04T00:42:12.523Z,101870.80
2018-11-04T00:44:41.207Z,101873.59
2018-11-04T00:47:09.879Z,101869.39
2018-11-04T00:49:38.412Z,101870.97
2018-11-04T00:52:07.161Z,101870.56
2018-11-04T00:54:35.919Z,101867.72
2018-11-04T00:57:04.854Z,101862.68
2018-11-04T00:59:33.615Z,101859.77
2018-11-04T01:02:02.365Z,101854.76
2018-11-04T01:04:31.017Z,101850.83
2018-11-04T01:06:59.613Z,101851.77
2018-11-04T01:09:28.324Z,101847.55
2018-11-04T01:11:57.068Z,101837.67
2018-11-04T01:14:25.880Z,101839.05
2018-11-04T01:16:54.434Z,101834.78
2018-11-04T01:19:23.289Z,101833.52
2018-11-04T01:21:51.972Z,101830.83
2018-11-04T01:24:20.689Z,101825.42
2018-11-04T01:26:49.341Z,101829.15
2018-11-04T01:29:18.075Z,101822.01
2018-11-04T01:31:46.622Z,101816.80
2018-11-04T01:34:15.319Z,101810.46
2018-11-04T01:36:44.120Z,101813.31
2018-11-04T01:39:12.781Z,101807.81
2018-11-04T01:41:41.694Z,101804.45
2018-11-04T01:44:11.496Z,101801.44
2018-11-04T01:46:41.548Z,101796.23
2018-11-04T01:49:10.375Z,101792.72
2018-11-04T01:51:39.389Z,101790.57
2018-11-04T01:54:08.251Z,101785.84
2018-11-04T01:56:36.986Z,101784.39
2018-11-04T01:59:06.175Z,101781.05
2018-11-04T02:01:34.784Z,101772.19
2018-11-04T02:04:03.610Z,101765.11
2018-11-04T02:06:32.356Z,101758.91
2018-11-04T02:09:02.149Z,101750.02
2018-11-04T02:11:30.806Z,101748.03
2018-11-04T02:13:59.543Z,101744.02
2018-11-04T02:16:28.289Z,101733.38
2018-11-04T02:18:57.077Z,101730.96
2018-11-04T02:21:25.657Z,101731.90
2018-11-04T02:23:54.388Z,101731.19
2018-11-04T02:26:23.251Z,101727.00
2018-11-04T02:28:51.939Z,101727.87
2018-11-04T02:31:20.601Z,101721.43
2018-11-04T02:33:49.298Z,101713.78
2018-11-04T02:36:17.942Z,101717.36
2018-11-04T02:38:46.586Z,101708.84
2018-11-04T02:41:15.236Z,101699.92
2018-11-04T02:43:43.898Z,101691.96
2018-11-04T02:46:12.868Z,101693.83
2018-11-04T02:48:41.537Z,101687.61
2018-11-04T02:51:10.386Z,101684.66
2018-11-04T02:53:39.107Z,101680.67
2018-11-04T02:56:07.852Z,101676.88
2018-11-04T02:58:36.490Z,101678.90
2018-11-04T03:01:05.122Z,101668.80
2018-11-04T03:03:33.908Z,101674.64
2018-11-04T03:06:02.880Z,101667.23
2018-11-04T03:08:32.621Z,101659.12
2018-11-04T03:11:02.960Z,101666.58
2018-11-04T03:13:31.700Z,101659.98
2018-11-04T03:16:00.305Z,101658.06
2018-11-04T03:18:28.922Z,101654.80
2018-11-04T03:20:57.454Z,101651.43
2018-11-04T03:23:26.017Z,101644.67
2018-11-04T03:25:54.584Z,101649.31
2018-11-04T03:28:23.376Z,101643.22
2018-11-04T03:30:52.082Z,101641.16
2018-11-04T03:33:20.669Z,101632.70
2018-11-04T03:35:49.304Z,101633.60
2018-11-04T03:38:17.950Z,101626.42
2018-11-04T03:40:46.471Z,101629.55
2018-11-04T03:43:15.054Z,101634.71
2018-11-04T03:45:43.990Z,101626.34
2018-11-04T03:48:12.651Z,101619.96
2018-11-04T03:50:41.465Z,101619.23
2018-11-04T03:53:10.163Z,101620.13
2018-11-04T03:55:38.924Z,101620.30
2018-11-04T03:58:07.567Z,101617.87
2018-11-04T04:00:36.841Z,101614.61
2018-11-04T04:03:05.802Z,101608.38
2018-11-04T04:05:34.637Z,101601.70
2018-11-04T04:08:03.596Z,101607.76
2018-11-04T04:10:32.433Z,101599.37
2018-11-04T04:13:01.182Z,101594.78
2018-11-04T04:15:29.951Z,101595.34
2018-11-04T04:17:58.676Z,101593.28
2018-11-04T04:20:27.348Z,101586.63
2018-11-04T04:22:55.980Z,101586.30
2018-11-04T04:25:24.847Z,101579.97
2018-11-04T04:27:53.718Z,101585.48
2018-11-04T04:30:22.348Z,101585.58
2018-11-04T04:32:50.987Z,101576.29
2018-11-04T04:35:19.598Z,101579.31
2018-11-04T04:37:48.350Z,101581.94
2018-11-04T04:40:17.379Z,101583.31
2018-11-04T04:42:46.141Z,101589.88
2018-11-04T04:45:14.833Z,101588.42
2018-11-04T04:47:43.608Z,101591.87
2018-11-04T04:50:12.341Z,101585.48
2018-11-04T04:52:41.004Z,101582.27
2018-11-04T04:55:09.589Z,101573.08
2018-11-04T04:57:38.388Z,101573.89
2018-11-04T05:00:07.973Z,101569.78
2018-11-04T05:02:36.616Z,101573.02
2018-11-04T05:05:05.436Z,101562.87
2018-11-04T05:07:34.014Z,101563.86
2018-11-04T05:10:02.553Z,101563.41
2018-11-04T05:12:31.207Z,101559.56
2018-11-04T05:14:59.728Z,101555.33
2018-11-04T05:17:28.489Z,101553.30
2018-11-04T05:19:57.063Z,101544.77
2018-11-04T05:22:25.622Z,101545.98
2018-11-04T05:24:54.386Z,101551.92
2018-11-04T05:27:22.997Z,101550.42
2018-11-04T05:29:51.712Z,101545.06
2018-11-04T05:32:20.416Z,101543.04
2018-11-04T05:34:49.154Z,101540.41
2018-11-04T05:37:17.672Z,101540.70
2018-11-04T05:39:46.390Z,101540.27
2018-11-04T05:42:15.111Z,101543.78
2018-11-04T05:44:43.674Z,101547.28
2018-11-04T05:47:12.305Z,101548.73
2018-11-04T05:49:40.962Z,101553.51
2018-11-04T05:52:09.462Z,101555.80
2018-11-04T05:54:38.165Z,101556.20
2018-11-04T05:57:06.883Z,101558.42
2018-11-04T05:59:35.558Z,101556.25
2018-11-04T06:02:04.349Z,101559.65
2018-11-04T06:04:33.715Z,101567.42
2018-11-04T06:07:03.555Z,101567.42
2018-11-04T06:09:32.246Z,101558.97
2018-11-04T06:12:00.923Z,101561.98
2018-11-04T06:14:29.550Z,101563.60
2018-11-04T06:16:58.211Z,101564.52
2018-11-04T06:19:26.888Z,101559.82
2018-11-04T06:21:55.462Z,101561.98
2018-11-04T06:24:24.234Z,101557.74
2018-11-04T06:26:52.894Z,101566.73
2018-11-04T06:29:21.902Z,101556.41
2018-11-04T06:31:50.600Z,101555.13
2018-11-04T06:34:19.308Z,101556.00
2018-11-04T06:36:47.850Z,101563.33
2018-11-04T06:39:16.534Z,101564.71
2018-11-04T06:41:45.411Z,101559.14
2018-11-04T06:44:14.228Z,101557.93
2018-11-04T06:46:42.819Z,101562.77
2018-11-04T06:49:11.570Z,101561.54
2018-11-04T06:51:40.261Z,101556.36
2018-11-04T06:54:08.970Z,101563.18
2018-11-04T06:56:37.705Z,101565.03
2018-11-04T06:59:06.555Z,101564.70
2018-11-04T07:01:35.339Z,101564.82
2018-11-04T07:04:16.049Z,101558.91
2018-11-04T07:06:44.776Z,101552.37
2018-11-04T07:09:14.235Z,101558.31
2018-11-04T07:11:42.856Z,101557.13
2018-11-04T07:14:11.548Z,101563.61
2018-11-04T07:16:40.252Z,101552.02
2018-11-04T07:19:08.923Z,101551.56
2018-11-04T07:21:37.721Z,101554.92
2018-11-04T07:24:07.143Z,101549.34
2018-11-04T07:26:39.755Z,101540.88
2018-11-04T07:29:09.272Z,101547.38
2018-11-04T07:31:37.983Z,101550.98
2018-11-04T07:34:07.275Z,101550.98
2018-11-04T07:36:36.015Z,101560.36
2018-11-04T07:39:07.669Z,101563.08
2018-11-04T07:41:36.231Z,101554.48
2018-11-04T07:44:05.175Z,101557.56
2018-11-04T07:46:33.771Z,101556.75
2018-11-04T07:49:02.638Z,101550.70
2018-11-04T07:51:31.436Z,101552.28
2018-11-04T07:54:00.221Z,101542.09
2018-11-04T07:56:29.234Z,101538.26
2018-11-04T07:58:58.024Z,101541.86
2018-11-04T08:01:26.624Z,101532.45
2018-11-04T08:03:55.447Z,101533.31
2018-11-04T08:06:24.058Z,101538.61
2018-11-04T08:08:52.697Z,101532.67
2018-11-04T08:11:21.271Z,101526.44
2018-11-04T08:13:50.053Z,101526.20
2018-11-04T08:16:18.747Z,101525.50
2018-11-04T08:18:47.396Z,101526.10
2018-11-04T08:21:16.113Z,101527.08
2018-11-04T08:23:44.881Z,101519.45
2018-11-04T08:26:13.703Z,101516.57
2018-11-04T08:28:42.364Z,101511.91
2018-11-04T08:31:11.053Z,101507.30
2018-11-04T08:33:39.858Z,101507.30
2018-11-04T08:36:08.460Z,101506.99
2018-11-04T08:38:37.233Z,101506.22
2018-11-04T08:41:05.893Z,101497.77
2018-11-04T08:43:34.471Z,101500.88
2018-11-04T08:46:04.334Z,101497.13
2018-11-04T08:48:33.072Z,101496.40
2018-11-04T08:51:01.754Z,101497.36
2018-11-04T08:53:30.390Z,101491.50
2018-11-04T08:55:59.142Z,101491.96
2018-11-04T08:58:27.796Z,101494.20
2018-11-04T09:00:56.591Z,101485.27
2018-11-04T09:03:25.256Z,101483.70
2018-11-04T09:05:53.863Z,101493.58
2018-11-04T09:08:22.578Z,101490.65
2018-11-04T09:10:51.222Z,101484.73
2018-11-04T09:13:19.927Z,101482.22
2018-11-04T09:15:48.896Z,101477.58
2018-11-04T09:18:17.584Z,101475.51
2018-11-04T09:20:46.191Z,101469.17
2018-11-04T09:23:14.910Z,101463.67
2018-11-04T09:25:43.513Z,101461.18
2018-11-04T09:28:12.276Z,101464.64
2018-11-04T09:30:41.209Z,101455.29
2018-11-04T09:33:12.283Z,101455.73
2018-11-04T09:35:41.319Z,101458.41
2018-11-04T09:38:09.788Z,101462.30
2018-11-04T09:40:38.756Z,101453.84
2018-11-04T09:43:07.424Z,101444.50
2018-11-04T09:45:36.071Z,101439.92
2018-11-04T09:48:04.901Z,101439.95
2018-11-04T09:50:33.574Z,101434.45
2018-11-04T09:53:02.318Z,101426.40
2018-11-04T09:55:31.177Z,101432.94
2018-11-04T09:57:59.903Z,101435.23
2018-11-04T10:00:29.289Z,101440.45
2018-11-04T10:02:57.862Z,101433.64
2018-11-04T10:05:26.457Z,101434.95
2018-11-04T10:07:55.043Z,101431.48
2018-11-04T10:10:23.795Z,101428.11
2018-11-04T10:12:52.540Z,101424.75
2018-11-04T10:15:21.834Z,101423.52
2018-11-04T10:17:51.534Z,101420.58
2018-11-04T10:20:20.367Z,101418.48
2018-11-04T10:22:48.847Z,101418.58
2018-11-04T10:25:17.808Z,101413.04
2018-11-04T10:27:47.922Z,101417.81
2018-11-04T10:30:17.508Z,101409.73
2018-11-04T10:32:46.342Z,101403.70
2018-11-04T10:35:14.989Z,101399.02
2018-11-04T10:37:44.099Z,101388.32
2018-11-04T10:40:13.615Z,101387.93
2018-11-04T10:42:43.720Z,101387.98
2018-11-04T10:45:13.520Z,101389.30
2018-11-04T10:47:42.691Z,101389.80
2018-11-04T10:50:12.957Z,101388.52
2018-11-04T10:52:41.651Z,101382.13
2018-11-04T10:55:11.204Z,101383.83
2018-11-04T10:57:39.996Z,101385.61
2018-11-04T11:00:15.959Z,101375.78
2018-11-04T11:02:45.384Z,101372.35
2018-11-04T11:05:14.582Z,101360.34
2018-11-04T11:07:43.451Z,101365.14
2018-11-04T11:10:12.446Z,101360.45
2018-11-04T11:12:41.144Z,101363.45
2018-11-04T11:15:10.863Z,101359.17
2018-11-04T11:17:39.920Z,101350.61
2018-11-04T11:20:10.085Z,101342.89
2018-11-04T11:22:40.194Z,101337.75
2018-11-04T11:25:09.690Z,101328.73
2018-11-04T11:27:38.781Z,101331.34
2018-11-04T11:30:07.916Z,101327.03
2018-11-04T11:32:37.108Z,101324.89
2018-11-04T11:35:07.048Z,101319.75
2018-11-04T11:37:36.466Z,101303.89
2018-11-04T11:40:05.697Z,101298.30
2018-11-04T11:42:34.313Z,101298.70
2018-11-04T11:45:03.713Z,101296.55
2018-11-04T11:52:38.053Z,101287.09
2018-11-04T11:55:07.226Z,101295.22
2018-11-04T11:57:36.181Z,101287.45
2018-11-04T12:00:06.539Z,101277.13
2018-11-04T12:02:35.228Z,101280.99
2018-11-04T12:05:04.562Z,101283.57
2018-11-04T12:07:33.756Z,101269.83
2018-11-04T12:10:03.635Z,101271.95
2018-11-04T12:12:32.337Z,101273.69
2018-11-04T12:15:03.164Z,101273.69
2018-11-04T12:17:31.821Z,101275.45
2018-11-04T12:20:00.586Z,101275.05
2018-11-04T12:22:29.114Z,101271.59
2018-11-04T12:24:57.874Z,101268.60
2018-11-04T12:27:27.102Z,101269.89
2018-11-04T12:29:55.752Z,101261.73
2018-11-04T12:32:24.933Z,101259.14
2018-11-04T12:34:54.630Z,101257.86
2018-11-04T12:37:24.265Z,101254.84
2018-11-04T12:39:53.187Z,101245.82
2018-11-04T12:42:21.882Z,101246.22
2018-11-04T12:44:50.732Z,101242.79
2018-11-04T12:47:19.431Z,101247.51
2018-11-04T12:49:48.117Z,101247.94
2018-11-04T12:52:16.841Z,101252.25
2018-11-04T12:54:45.442Z,101246.66
2018-11-04T12:57:14.260Z,101240.21
2018-11-04T12:59:43.039Z,101234.19
2018-11-04T13:02:11.869Z,101239.34
2018-11-04T13:04:40.670Z,101237.19
2018-11-04T13:07:09.362Z,101235.05
2018-11-04T13:09:38.091Z,101237.64
2018-11-04T13:12:06.820Z,101226.04
2018-11-04T13:14:35.593Z,101226.47
2018-11-04T13:17:04.417Z,101223.48
2018-11-04T13:19:33.163Z,101226.47
2018-11-04T13:22:01.830Z,101216.15
2018-11-04T13:24:30.538Z,101214.43
2018-11-04T13:26:59.279Z,101209.28
2018-11-04T13:29:28.664Z,101210.58
2018-11-04T13:31:57.498Z,101204.56
2018-11-04T13:34:26.128Z,101196.40
2018-11-04T13:36:54.736Z,101195.56
2018-11-04T13:39:24.067Z,101190.02
2018-11-04T13:41:52.735Z,101189.98
2018-11-04T13:44:21.625Z,101188.70
2018-11-04T13:46:50.253Z,101184.41
2018-11-04T13:49:18.964Z,101186.55
2018-11-04T13:51:47.526Z,101186.12
2018-11-04T13:54:16.177Z,101176.23
2018-11-04T13:56:44.828Z,101171.95
2018-11-04T13:59:13.604Z,101166.80
2018-11-04T14:01:42.240Z,101160.34
2018-11-04T14:04:10.958Z,101156.94
2018-11-04T14:06:39.560Z,101152.20
2018-11-04T14:09:09.094Z,101160.79
2018-11-04T14:11:37.874Z,101147.48
2018-11-04T14:14:06.801Z,101147.02
2018-11-04T14:16:35.421Z,101152.19
2018-11-04T14:19:04.417Z,101149.59
2018-11-04T14:21:33.103Z,101147.45
2018-11-04T14:24:01.954Z,101140.14
2018-11-04T14:26:30.565Z,101144.44
2018-11-04T14:28:59.096Z,101147.05
2018-11-04T14:31:27.715Z,101142.33
2018-11-04T14:33:56.572Z,101143.61
2018-11-04T14:36:25.208Z,101138.04
2018-11-04T14:38:53.901Z,101147.48
2018-11-04T14:41:22.688Z,101144.48
2018-11-04T14:43:51.441Z,101149.23
2018-11-04T14:46:20.298Z,101144.92
2018-11-04T14:48:49.111Z,101147.92
2018-11-04T14:51:17.950Z,101150.08
2018-11-04T14:53:46.594Z,101149.22
2018-11-04T14:56:15.222Z,101153.97
2018-11-04T14:58:43.940Z,101147.11
2018-11-04T15:01:12.993Z,101149.67
2018-11-04T15:03:41.781Z,101143.25
2018-11-04T15:06:11.384Z,101142.39
2018-11-04T15:08:40.118Z,101135.55
2018-11-04T15:11:08.798Z,101135.56
2018-11-04T15:13:37.420Z,101138.56
2018-11-04T15:16:06.474Z,101133.39
2018-11-04T15:18:35.159Z,101127.38
2018-11-04T15:21:05.272Z,101128.68
2018-11-04T15:23:34.145Z,101133.83
2018-11-04T15:26:03.328Z,101131.24
2018-11-04T15:28:32.088Z,101126.95
2018-11-04T15:31:00.926Z,101125.69
2018-11-04T15:33:29.663Z,101126.09
2018-11-04T15:35:58.494Z,101120.94
2018-11-04T15:38:27.387Z,101120.53
2018-11-04T15:40:56.715Z,101116.23
2018-11-04T15:43:25.614Z,101110.66
2018-11-04T15:45:54.605Z,101110.69
2018-11-04T15:48:23.688Z,101104.65
2018-11-04T15:50:52.773Z,101100.80
2018-11-04T15:53:21.424Z,101093.09
2018-11-04T15:55:50.096Z,101101.24
2018-11-04T15:58:18.672Z,101093.52
2018-11-04T16:00:47.336Z,101097.36
2018-11-04T16:03:16.113Z,101101.24
2018-11-04T16:05:45.090Z,101101.66
2018-11-04T16:08:13.943Z,101097.38
2018-11-04T16:10:42.666Z,101107.68
2018-11-04T16:13:11.431Z,101109.41
2018-11-04T16:15:40.154Z,101106.84
2018-11-04T16:18:08.812Z,101107.25
2018-11-04T16:20:37.489Z,101105.98
2018-11-04T16:23:06.329Z,101112.42
2018-11-04T16:25:35.004Z,101115.39
2018-11-04T16:28:04.610Z,101111.09
2018-11-04T16:30:33.333Z,101109.81
2018-11-04T16:33:02.052Z,101111.55
2018-11-04T16:35:30.868Z,101112.41
2018-11-04T16:37:59.611Z,101101.24
2018-11-04T16:40:28.379Z,101105.13
2018-11-04T16:42:57.172Z,101112.41
2018-11-04T16:45:25.770Z,101111.12
2018-11-04T16:47:54.744Z,101098.27
2018-11-04T16:50:23.332Z,101102.55
2018-11-04T16:52:52.084Z,101099.53
2018-11-04T16:55:21.081Z,101099.97
2018-11-04T16:57:49.916Z,101099.13
2018-11-04T17:00:18.526Z,101096.95
2018-11-04T17:02:47.090Z,101100.81
2018-11-04T17:05:16.076Z,101102.11
2018-11-04T17:07:46.128Z,101096.53
2018-11-04T17:10:15.491Z,101097.38
2018-11-04T17:12:44.591Z,101090.54
2018-11-04T17:15:14.376Z,101100.41
2018-11-04T17:17:43.202Z,101102.14
2018-11-04T17:20:16.670Z,101100.84
2018-11-04T17:22:46.057Z,101109.84
2018-11-04T17:25:14.878Z,101102.98
2018-11-04T17:27:43.960Z,101099.13
2018-11-04T17:30:15.225Z,101094.39
2018-11-04T17:32:45.938Z,101104.28
2018-11-04T17:35:15.670Z,101102.99
2018-11-04T17:37:45.020Z,101094.83
2018-11-04T17:40:14.542Z,101094.84
2018-11-04T17:42:43.593Z,101094.40
2018-11-04T17:45:13.480Z,101098.69
2018-11-04T17:47:42.205Z,101103.01
2018-11-04T17:50:14.077Z,101098.69
2018-11-04T17:52:43.145Z,101092.27
2018-11-04T17:55:11.803Z,101076.40
2018-11-04T17:57:40.602Z,101078.55
2018-11-04T18:00:10.516Z,101079.39
2018-11-04T18:02:39.707Z,101065.23
2018-11-04T18:05:09.216Z,101070.80
2018-11-04T18:07:37.951Z,101065.67
2018-11-04T18:10:06.902Z,101060.97
2018-11-04T18:12:36.266Z,101065.25
2018-11-04T18:15:05.363Z,101063.08
2018-11-04T18:17:34.278Z,101060.95
2018-11-04T18:20:04.208Z,101069.97
2018-11-04T18:22:32.831Z,101070.81
2018-11-04T18:25:01.697Z,101074.66
2018-11-04T18:27:30.410Z,101071.67
2018-11-04T18:29:59.061Z,101075.11
2018-11-04T18:32:28.004Z,101087.14
2018-11-04T18:34:56.911Z,101081.08
2018-11-04T18:37:25.624Z,101084.93
2018-11-04T18:39:54.353Z,101076.78
2018-11-04T18:42:23.013Z,101078.52
2018-11-04T18:44:52.921Z,101080.22
2018-11-04T18:47:21.677Z,101070.80
2018-11-04T18:49:50.447Z,101066.06
2018-11-04T18:52:19.259Z,101071.64
2018-11-04T18:54:47.973Z,101065.66
2018-11-04T18:57:16.757Z,101069.94
2018-11-04T18:59:45.543Z,101065.22
2018-11-04T19:02:14.448Z,101069.52
2018-11-04T19:04:43.202Z,101076.36
2018-11-04T19:07:11.894Z,101066.94
2018-11-04T19:09:40.574Z,101070.81
2018-11-04T19:12:09.911Z,101063.94
2018-11-04T19:14:38.544Z,101057.51
2018-11-04T19:17:07.296Z,101062.64
2018-11-04T19:19:35.914Z,101059.20
2018-11-04T19:22:04.990Z,101069.08
2018-11-04T19:24:33.634Z,101071.23
2018-11-04T19:27:02.820Z,101069.51
2018-11-04T19:29:31.561Z,101072.09
2018-11-04T19:32:00.243Z,101073.80
2018-11-04T19:34:29.034Z,101067.37
2018-11-04T19:36:57.756Z,101071.67
2018-11-04T19:39:26.410Z,101077.24
2018-11-04T19:41:55.052Z,101075.09
2018-11-04T19:44:23.625Z,101075.95
2018-11-04T19:46:52.389Z,101067.80
2018-11-04T19:49:21.073Z,101062.67
2018-11-04T19:51:49.699Z,101064.37
2018-11-04T19:54:18.433Z,101055.36
2018-11-04T19:56:47.133Z,101058.38
2018-11-04T19:59:16.044Z,101051.92
2018-11-04T20:01:44.895Z,101055.78
2018-11-04T20:04:13.910Z,101055.80
2018-11-04T20:06:42.648Z,101056.66
2018-11-04T20:09:14.251Z,101055.79
2018-11-04T20:11:43.582Z,101058.35
2018-11-04T20:14:16.142Z,101060.50
2018-11-04T20:16:47.122Z,101057.95
2018-11-04T20:19:20.901Z,101052.37
2018-11-04T20:21:49.734Z,101054.50
2018-11-04T20:24:23.477Z,101053.64
2018-11-04T20:26:52.302Z,101036.48
2018-11-04T20:29:21.312Z,101042.52
2018-11-04T20:31:55.124Z,101039.92
2018-11-04T20:34:24.010Z,101037.78
2018-11-04T20:36:52.833Z,101033.05
2018-11-04T20:39:26.967Z,101028.33
2018-11-04T20:41:56.016Z,101019.33
2018-11-04T20:44:25.090Z,101018.06
2018-11-04T20:46:53.825Z,101012.91
2018-11-04T20:49:27.643Z,101009.91
2018-11-04T20:51:56.511Z,101004.75
2018-11-04T20:54:25.219Z,100999.63
2018-11-04T20:56:59.125Z,100996.19
2018-11-04T20:59:27.752Z,100991.89
2018-11-04T21:01:56.344Z,100993.17
2018-11-04T21:04:25.017Z,100996.19
2018-11-04T21:06:53.688Z,100996.63
2018-11-04T21:09:22.298Z,101003.03
2018-11-04T21:11:50.899Z,101001.33
2018-11-04T21:14:19.574Z,100999.61
2018-11-04T21:16:48.457Z,100993.61
2018-11-04T21:19:16.945Z,100994.04
2018-11-04T21:21:45.614Z,100998.34
2018-11-04T21:24:14.282Z,100987.20
2018-11-04T21:26:43.061Z,100993.19
2018-11-04T21:29:11.999Z,100991.90
2018-11-04T21:31:40.472Z,100985.03
2018-11-04T21:34:09.319Z,100984.62
2018-11-04T21:36:38.022Z,100982.88
2018-11-04T21:39:09.205Z,100982.46
2018-11-04T21:41:37.856Z,100980.75
2018-11-04T21:44:06.670Z,100983.77
2018-11-04T21:46:35.270Z,100981.18
2018-11-04T21:49:03.869Z,100984.61
2018-11-04T21:51:32.866Z,100980.76
2018-11-04T21:54:01.683Z,100977.30
2018-11-04T21:56:31.387Z,100973.47
2018-11-04T21:58:59.961Z,100971.73
2018-11-04T22:01:28.726Z,100967.02
2018-11-04T22:03:57.694Z,100974.74
2018-11-04T22:06:26.152Z,100965.31
2018-11-04T22:08:54.747Z,100967.91
2018-11-04T22:11:23.421Z,100968.73
2018-11-04T22:13:52.202Z,100961.03
2018-11-04T22:16:20.753Z,100961.44
2018-11-04T22:18:49.470Z,100967.89
2018-11-04T22:21:18.497Z,100967.88
2018-11-04T22:23:47.193Z,100959.33
2018-11-04T22:26:15.878Z,100962.73
2018-11-04T22:28:44.477Z,100963.16
2018-11-04T22:31:13.065Z,100970.45
2018-11-04T22:33:41.587Z,100972.17
2018-11-04T22:36:10.513Z,100970.02
2018-11-04T22:38:39.294Z,100976.47
2018-11-04T22:41:07.954Z,100965.73
2018-11-04T22:43:36.849Z,100960.16
2018-11-04T22:46:06.024Z,100953.75
2018-11-04T22:48:34.812Z,100949.44
2018-11-04T22:51:03.610Z,100949.02
2018-11-04T22:53:32.893Z,100950.31
2018-11-04T22:56:03.467Z,100941.30
2018-11-04T22:58:32.145Z,100943.44
2018-11-04T23:01:02.191Z,100941.30
2018-11-04T23:03:30.907Z,100941.74
2018-11-04T23:06:05.034Z,100941.72
2018-11-04T23:08:33.962Z,100934.42
2018-11-04T23:11:03.334Z,100936.14
2018-11-04T23:13:32.358Z,100935.29
2018-11-04T23:16:02.602Z,100936.14
2018-11-04T23:18:31.400Z,100939.59
2018-11-04T23:21:00.108Z,100939.58
2018-11-04T23:23:28.862Z,100937.84
2018-11-04T23:25:57.548Z,100931.84
2018-11-04T23:28:26.211Z,100929.71
2018-11-04T23:30:54.881Z,100922.43
2018-11-04T23:33:23.451Z,100909.57
2018-11-04T23:35:52.122Z,100910.85
2018-11-04T23:38:20.789Z,100904.84
2018-11-04T23:40:49.518Z,100905.27
2018-11-04T23:43:18.157Z,100908.70
2018-11-04T23:45:46.811Z,100903.98
2018-11-04T23:48:15.412Z,100893.69
2018-11-04T23:50:44.170Z,100899.71
2018-11-04T23:53:13.323Z,100884.70
2018-11-04T23:55:42.350Z,100883.39
2018-11-04T23:58:11.770Z,100877.40
